createdAt,value
2023-03-23T15:58:50.811Z,95271.63
2023-03-23T16:01:28.791Z,95282.03
2023-03-23T16:04:06.936Z,95271.03
2023-03-23T16:06:34.269Z,95279.53
2023-03-23T16:09:01.114Z,95282.72
2023-03-23T16:11:29.182Z,95277.38
2023-03-23T16:13:55.761Z,95282.44
2023-03-23T16:16:23.706Z,95292.09
2023-03-23T16:18:50.604Z,95290.72
2023-03-23T16:21:17.038Z,95290.69
2023-03-23T16:23:46.234Z,95286.69
2023-03-23T16:26:13.193Z,95296.28
2023-03-23T16:28:39.619Z,95286.06
2023-03-23T16:31:06.256Z,95290.59
2023-03-23T16:33:32.752Z,95294.78
2023-03-23T16:35:59.591Z,95296.69
2023-03-23T16:38:26.155Z,95293.75
2023-03-23T16:40:52.682Z,95300.13
2023-03-23T16:43:19.108Z,95295.84
2023-03-23T16:45:46.722Z,95296.31
2023-03-23T16:48:14.377Z,95299.25
2023-03-23T16:50:41.283Z,95309.91
2023-03-23T16:53:08.301Z,95296.72
2023-03-23T16:55:35.360Z,95308.44
2023-03-23T16:58:13.707Z,95309.44
2023-03-23T17:00:43.195Z,95307.84
2023-03-23T17:03:09.766Z,95307.84
2023-03-23T17:05:36.975Z,95316.09
2023-03-23T17:08:04.159Z,95309.16
2023-03-23T17:10:31.246Z,95314.22
2023-03-23T17:12:57.836Z,95322.75
2023-03-23T17:15:25.710Z,95313.69
2023-03-23T17:17:52.828Z,95319.03
2023-03-23T17:20:19.377Z,95317.91
2023-03-23T17:22:45.917Z,95302.63
2023-03-23T17:25:12.497Z,95315.16
2023-03-23T17:27:39.121Z,95311.97
2023-03-23T17:30:06.900Z,95307.19
2023-03-23T17:32:33.481Z,95308.28
2023-03-23T17:34:59.970Z,95306.59
2023-03-23T17:37:26.624Z,95303.31
2023-03-23T17:39:53.099Z,95297.91
2023-03-23T17:42:19.537Z,95302.16
2023-03-23T17:44:46.062Z,95315.91
2023-03-23T17:47:12.845Z,95313.75
2023-03-23T17:49:39.323Z,95319.06
2023-03-23T17:52:05.871Z,95317.44
2023-03-23T17:54:32.408Z,95319.00
2023-03-23T17:57:00.982Z,95322.69
2023-03-23T17:59:29.161Z,95327.91
2023-03-23T18:01:55.878Z,95318.72
2023-03-23T18:04:22.627Z,95309.84
2023-03-23T18:06:49.377Z,95314.09
2023-03-23T18:09:16.170Z,95313.44
2023-03-23T18:11:42.664Z,95315.53
2023-03-23T18:14:09.145Z,95318.97
2023-03-23T18:16:35.732Z,95320.38
2023-03-23T18:19:02.219Z,95326.72
2023-03-23T18:21:28.692Z,95327.53
2023-03-23T18:23:59.936Z,95333.06
2023-03-23T18:26:27.314Z,95333.06
2023-03-23T18:28:53.892Z,95334.06
2023-03-23T18:31:21.314Z,95328.56
2023-03-23T18:33:49.557Z,95332.59
2023-03-23T18:36:17.330Z,95336.09
2023-03-23T18:38:44.928Z,95337.94
2023-03-23T18:41:11.934Z,95343.50
2023-03-23T18:43:38.546Z,95338.13
2023-03-23T18:46:05.213Z,95343.94
2023-03-23T18:48:31.752Z,95351.03
2023-03-23T18:50:59.901Z,95357.00
2023-03-23T18:53:26.834Z,95359.13
2023-03-23T18:55:53.883Z,95359.25
2023-03-23T18:58:21.013Z,95358.66
2023-03-23T19:00:47.981Z,95358.78
2023-03-23T19:03:15.185Z,95361.34
2023-03-23T19:05:42.346Z,95364.19
2023-03-23T19:08:09.392Z,95366.19
2023-03-23T19:10:36.976Z,95378.63
2023-03-23T19:13:03.685Z,95380.38
2023-03-23T19:15:30.409Z,95382.91
2023-03-23T19:17:56.983Z,95379.13
2023-03-23T19:22:56.940Z,95374.66
2023-03-23T19:25:23.431Z,95371.59
2023-03-23T19:28:33.650Z,95374.16
2023-03-23T19:30:36.773Z,95368.97
2023-03-23T19:33:03.284Z,95373.97
2023-03-23T19:35:31.247Z,95378.13
2023-03-23T19:37:57.815Z,95375.84
2023-03-23T19:40:39.174Z,95373.88
2023-03-23T19:43:08.459Z,95381.88
2023-03-23T19:45:34.960Z,95391.63
2023-03-23T19:48:01.435Z,95397.63
2023-03-23T19:50:27.994Z,95390.59
2023-03-23T19:52:54.512Z,95398.47
2023-03-23T19:55:21.033Z,95400.53
2023-03-23T19:57:47.902Z,95404.81
2023-03-23T20:00:14.813Z,95397.88
2023-03-23T20:02:41.723Z,95393.50
2023-03-23T20:05:09.157Z,95390.28
2023-03-23T20:07:40.484Z,95403.22
2023-03-23T20:10:08.233Z,95404.81
2023-03-23T20:12:34.820Z,95393.84
2023-03-23T20:15:01.338Z,95396.97
2023-03-23T20:17:28.564Z,95396.16
2023-03-23T20:19:56.416Z,95387.75
2023-03-23T20:22:22.877Z,95387.97
2023-03-23T20:24:49.508Z,95382.06
2023-03-23T20:27:17.313Z,95383.94
2023-03-23T20:29:44.072Z,95380.94
2023-03-23T20:32:10.632Z,95389.16
2023-03-23T20:34:37.197Z,95379.78
2023-03-23T20:37:03.932Z,95387.41
2023-03-23T20:39:31.622Z,95379.63
2023-03-23T20:41:59.351Z,95387.84
2023-03-23T20:44:27.708Z,95380.88
2023-03-23T20:46:54.270Z,95392.09
2023-03-23T20:49:20.886Z,95390.25
2023-03-23T20:51:47.947Z,95393.94
2023-03-23T20:54:15.749Z,95394.97
2023-03-23T20:56:45.971Z,95390.72
2023-03-23T20:59:13.184Z,95392.78
2023-03-23T21:01:39.981Z,95395.44
2023-03-23T21:04:08.306Z,95405.47
2023-03-23T21:06:36.523Z,95399.81
2023-03-23T21:09:03.605Z,95401.53
2023-03-23T21:11:30.673Z,95387.69
2023-03-23T21:13:57.189Z,95391.59
2023-03-23T21:16:24.369Z,95390.22
2023-03-23T21:18:51.118Z,95386.19
2023-03-23T21:21:18.461Z,95379.59
2023-03-23T21:23:52.775Z,95378.91
2023-03-23T21:26:22.567Z,95386.53
2023-03-23T21:28:50.783Z,95384.09
2023-03-23T21:31:17.518Z,95382.69
2023-03-23T21:33:44.106Z,95376.22
2023-03-23T21:36:11.184Z,95388.34
2023-03-23T21:38:38.440Z,95384.88
2023-03-23T21:41:11.697Z,95390.41
2023-03-23T21:43:39.688Z,95393.88
2023-03-23T21:46:08.836Z,95399.59
2023-03-23T21:48:38.611Z,95407.00
2023-03-23T21:51:09.227Z,95404.66
2023-03-23T21:53:37.061Z,95408.00
2023-03-23T21:56:05.247Z,95398.22
2023-03-23T21:58:32.009Z,95408.81
2023-03-23T22:01:01.047Z,95407.19
2023-03-23T22:03:32.186Z,95406.38
2023-03-23T22:05:59.478Z,95406.38
2023-03-23T22:08:28.897Z,95421.47
2023-03-23T22:11:01.827Z,95411.69
2023-03-23T22:13:30.334Z,95425.97
2023-03-23T22:15:57.979Z,95418.84
2023-03-23T22:18:24.465Z,95413.75
2023-03-23T22:20:51.025Z,95414.00
2023-03-23T22:23:17.549Z,95406.03
2023-03-23T22:25:44.057Z,95397.94
2023-03-23T22:28:10.613Z,95403.25
2023-03-23T22:30:37.102Z,95393.44
2023-03-23T22:33:03.650Z,95404.84
2023-03-23T22:35:30.504Z,95396.66
2023-03-23T22:37:57.039Z,95393.78
2023-03-23T22:40:26.266Z,95393.19
2023-03-23T22:42:52.738Z,95398.81
2023-03-23T22:45:20.584Z,95390.28
2023-03-23T22:47:47.128Z,95391.56
2023-03-23T22:50:13.635Z,95398.91
2023-03-23T22:52:40.701Z,95394.22
2023-03-23T22:55:08.391Z,95391.19
2023-03-23T22:57:35.850Z,95378.53
2023-03-23T23:00:07.748Z,95382.56
2023-03-23T23:02:34.246Z,95379.31
2023-03-23T23:05:00.805Z,95373.88
2023-03-23T23:07:27.277Z,95373.88
2023-03-23T23:09:53.767Z,95375.28
2023-03-23T23:12:21.711Z,95374.47
2023-03-23T23:14:48.200Z,95376.16
2023-03-23T23:17:14.669Z,95389.28
2023-03-23T23:19:41.166Z,95381.56
2023-03-23T23:22:18.407Z,95393.88
2023-03-23T23:24:46.266Z,95383.94
2023-03-23T23:27:12.783Z,95389.47
2023-03-23T23:29:40.625Z,95386.22
2023-03-23T23:32:07.266Z,95388.59
2023-03-23T23:34:34.859Z,95397.59
2023-03-23T23:37:01.394Z,95396.41
2023-03-23T23:39:28.001Z,95402.38
2023-03-23T23:41:55.538Z,95398.31
2023-03-23T23:44:22.141Z,95401.41
2023-03-23T23:46:48.687Z,95394.31
2023-03-23T23:49:15.181Z,95402.91
2023-03-23T23:51:41.773Z,95409.94
2023-03-23T23:54:09.252Z,95411.59
2023-03-23T23:56:36.122Z,95404.09
2023-03-23T23:59:05.464Z,95402.47
